sensor_id;sensor_type;location;lat;lon;timestamp;pressure;altitude;pressure_sealevel;temperature;humidity
72395;BME280;60384;48.152;11.614;2023-02-15T00:00:28;97022.78;;;0.89;67.97
72395;BME280;60384;48.152;11.614;2023-02-15T00:03:30;97014.69;;;0.90;68.04
72395;BME280;60384;48.152;11.614;2023-02-15T00:06:32;97011.03;;;0.91;68.48
72395;BME280;60384;48.152;11.614;2023-02-15T00:09:34;97018.69;;;0.93;68.52
72395;BME280;60384;48.152;11.614;2023-02-15T00:12:36;97015.25;;;0.92;68.47
72395;BME280;60384;48.152;11.614;2023-02-15T00:15:39;97010.22;;;0.91;68.21
72395;BME280;60384;48.152;11.614;2023-02-15T00:18:41;97011.03;;;0.91;67.91
72395;BME280;60384;48.152;11.614;2023-02-15T00:21:43;97002.09;;;0.92;68.84
72395;BME280;60384;48.152;11.614;2023-02-15T00:24:45;97006.53;;;0.92;68.26
72395;BME280;60384;48.152;11.614;2023-02-15T00:27:47;97012.06;;;0.90;68.78
72395;BME280;60384;48.152;11.614;2023-02-15T00:30:50;97004.38;;;0.89;68.29
72395;BME280;60384;48.152;11.614;2023-02-15T00:33:52;97005.59;;;0.86;68.51
72395;BME280;60384;48.152;11.614;2023-02-15T00:36:54;97003.88;;;0.80;67.89
72395;BME280;60384;48.152;11.614;2023-02-15T00:39:56;97018.47;;;0.76;68.14
72395;BME280;60384;48.152;11.614;2023-02-15T00:42:57;97009.66;;;0.70;68.21
72395;BME280;60384;48.152;11.614;2023-02-15T00:46:02;97011.72;;;0.68;68.58
72395;BME280;60384;48.152;11.614;2023-02-15T00:49:04;97006.88;;;0.65;68.47
72395;BME280;60384;48.152;11.614;2023-02-15T00:52:06;96999.22;;;0.64;67.98
72395;BME280;60384;48.152;11.614;2023-02-15T00:55:08;96996.22;;;0.60;68.91
72395;BME280;60384;48.152;11.614;2023-02-15T00:58:10;96992.22;;;0.58;68.86
72395;BME280;60384;48.152;11.614;2023-02-15T01:01:16;96997.72;;;0.56;68.62
72395;BME280;60384;48.152;11.614;2023-02-15T01:04:18;96992.44;;;0.56;68.78
72395;BME280;60384;48.152;11.614;2023-02-15T01:07:20;96983.97;;;0.54;68.21
72395;BME280;60384;48.152;11.614;2023-02-15T01:10:23;96982.94;;;0.55;68.28
72395;BME280;60384;48.152;11.614;2023-02-15T01:13:24;96979.50;;;0.55;68.67
72395;BME280;60384;48.152;11.614;2023-02-15T01:16:29;96968.19;;;0.54;68.23
72395;BME280;60384;48.152;11.614;2023-02-15T01:19:33;96963.16;;;0.53;69.09
72395;BME280;60384;48.152;11.614;2023-02-15T01:22:35;96960.97;;;0.50;68.26
72395;BME280;60384;48.152;11.614;2023-02-15T01:25:36;96966.81;;;0.52;68.48
72395;BME280;60384;48.152;11.614;2023-02-15T01:28:38;96962.00;;;0.49;68.68
72395;BME280;60384;48.152;11.614;2023-02-15T01:31:41;96955.00;;;0.43;68.51
72395;BME280;60384;48.152;11.614;2023-02-15T01:34:43;96959.22;;;0.44;69.26
72395;BME280;60384;48.152;11.614;2023-02-15T01:37:45;96962.44;;;0.46;68.61
72395;BME280;60384;48.152;11.614;2023-02-15T01:40:50;96958.44;;;0.43;68.65
72395;BME280;60384;48.152;11.614;2023-02-15T01:43:53;96956.69;;;0.37;68.67
72395;BME280;60384;48.152;11.614;2023-02-15T01:46:57;96952.88;;;0.33;67.97
72395;BME280;60384;48.152;11.614;2023-02-15T01:50:06;96950.13;;;0.28;68.41
72395;BME280;60384;48.152;11.614;2023-02-15T01:53:12;96946.09;;;0.25;68.36
72395;BME280;60384;48.152;11.614;2023-02-15T01:56:18;96944.94;;;0.21;68.67
72395;BME280;60384;48.152;11.614;2023-02-15T01:59:23;96940.09;;;0.18;68.33
72395;BME280;60384;48.152;11.614;2023-02-15T02:02:28;96937.13;;;0.15;68.08
72395;BME280;60384;48.152;11.614;2023-02-15T02:05:30;96939.59;;;0.10;68.58
72395;BME280;60384;48.152;11.614;2023-02-15T02:08:32;96931.59;;;0.05;68.82
72395;BME280;60384;48.152;11.614;2023-02-15T02:11:34;96927.94;;;0.06;68.96
72395;BME280;60384;48.152;11.614;2023-02-15T02:14:36;96915.59;;;0.06;68.42
72395;BME280;60384;48.152;11.614;2023-02-15T02:17:42;96921.09;;;0.05;68.27
72395;BME280;60384;48.152;11.614;2023-02-15T02:21:11;96916.84;;;0.04;68.10
72395;BME280;60384;48.152;11.614;2023-02-15T02:25:04;96919.69;;;0.02;68.14
72395;BME280;60384;48.152;11.614;2023-02-15T02:28:26;96920.69;;;0.01;68.13
72395;BME280;60384;48.152;11.614;2023-02-15T02:31:44;96927.00;;;0.00;68.33
72395;BME280;60384;48.152;11.614;2023-02-15T02:35:00;96931.19;;;0.01;68.67
72395;BME280;60384;48.152;11.614;2023-02-15T02:38:09;96927.13;;;0.05;68.37
72395;BME280;60384;48.152;11.614;2023-02-15T02:41:17;96924.28;;;0.07;68.74
72395;BME280;60384;48.152;11.614;2023-02-15T02:44:25;96925.66;;;0.09;68.80
72395;BME280;60384;48.152;11.614;2023-02-15T02:47:33;96919.03;;;0.07;68.23
72395;BME280;60384;48.152;11.614;2023-02-15T02:50:40;96912.19;;;0.06;68.74
72395;BME280;60384;48.152;11.614;2023-02-15T02:53:42;96917.06;;;0.02;67.70
72395;BME280;60384;48.152;11.614;2023-02-15T02:56:48;96912.00;;;0.00;68.08
72395;BME280;60384;48.152;11.614;2023-02-15T02:59:52;96903.34;;;0.00;68.64
72395;BME280;60384;48.152;11.614;2023-02-15T03:03:00;96908.81;;;-0.02;68.59
72395;BME280;60384;48.152;11.614;2023-02-15T03:06:09;96911.06;;;-0.05;68.82
72395;BME280;60384;48.152;11.614;2023-02-15T03:09:17;96904.44;;;-0.08;68.43
72395;BME280;60384;48.152;11.614;2023-02-15T03:12:24;96905.66;;;-0.10;68.29
72395;BME280;60384;48.152;11.614;2023-02-15T03:15:31;96910.72;;;-0.09;68.33
72395;BME280;60384;48.152;11.614;2023-02-15T03:18:56;96904.88;;;-0.11;68.38
72395;BME280;60384;48.152;11.614;2023-02-15T03:22:04;96905.66;;;-0.10;69.15
72395;BME280;60384;48.152;11.614;2023-02-15T03:25:12;96905.66;;;-0.10;68.67
72395;BME280;60384;48.152;11.614;2023-02-15T03:28:19;96915.97;;;-0.09;67.83
72395;BME280;60384;48.152;11.614;2023-02-15T03:31:26;96911.72;;;-0.10;68.70
72395;BME280;60384;48.152;11.614;2023-02-15T03:34:30;96904.44;;;-0.08;68.22
72395;BME280;60384;48.152;11.614;2023-02-15T03:37:36;96909.47;;;-0.06;68.97
72395;BME280;60384;48.152;11.614;2023-02-15T03:40:42;96912.69;;;-0.04;68.49
72395;BME280;60384;48.152;11.614;2023-02-15T03:44:06;96909.38;;;0.00;68.49
72395;BME280;60384;48.152;11.614;2023-02-15T03:47:13;96908.38;;;0.02;68.49
72395;BME280;60384;48.152;11.614;2023-02-15T03:50:19;96915.22;;;0.03;68.28
72395;BME280;60384;48.152;11.614;2023-02-15T03:53:42;96916.84;;;0.04;68.12
72395;BME280;60384;48.152;11.614;2023-02-15T03:56:45;96914.22;;;0.04;68.18
72395;BME280;60384;48.152;11.614;2023-02-15T04:00:13;96910.34;;;0.06;68.79
72395;BME280;60384;48.152;11.614;2023-02-15T04:03:37;96914.34;;;0.09;68.69
72395;BME280;60384;48.152;11.614;2023-02-15T04:06:40;96915.97;;;0.10;68.72
72395;BME280;60384;48.152;11.614;2023-02-15T04:09:44;96911.53;;;0.10;68.68
72395;BME280;60384;48.152;11.614;2023-02-15T04:13:03;96905.00;;;0.13;68.72
72395;BME280;60384;48.152;11.614;2023-02-15T04:16:04;96904.81;;;0.14;68.01
72395;BME280;60384;48.152;11.614;2023-02-15T04:19:05;96901.16;;;0.15;69.19
72395;BME280;60384;48.152;11.614;2023-02-15T04:22:25;96900.78;;;0.12;68.50
72395;BME280;60384;48.152;11.614;2023-02-15T04:25:45;96911.53;;;0.10;68.61
72395;BME280;60384;48.152;11.614;2023-02-15T04:28:47;96916.53;;;0.12;68.17
72395;BME280;60384;48.152;11.614;2023-02-15T04:31:49;96915.50;;;0.13;69.02
72395;BME280;60384;48.152;11.614;2023-02-15T04:34:51;96913.91;;;0.12;67.92
72395;BME280;60384;48.152;11.614;2023-02-15T04:37:53;96914.94;;;0.11;68.76
72395;BME280;60384;48.152;11.614;2023-02-15T04:40:57;96920.63;;;0.08;68.18
72395;BME280;60384;48.152;11.614;2023-02-15T04:43:59;96915.38;;;0.08;68.11
72395;BME280;60384;48.152;11.614;2023-02-15T04:47:02;96914.16;;;0.10;68.25
72395;BME280;60384;48.152;11.614;2023-02-15T04:50:05;96909.91;;;0.09;68.04
72395;BME280;60384;48.152;11.614;2023-02-15T04:53:06;96908.50;;;0.07;68.08
72395;BME280;60384;48.152;11.614;2023-02-15T04:56:10;96907.50;;;0.08;68.68
72395;BME280;60384;48.152;11.614;2023-02-15T04:59:12;96910.72;;;0.10;68.78
72395;BME280;60384;48.152;11.614;2023-02-15T05:02:14;96908.44;;;0.13;68.23
72395;BME280;60384;48.152;11.614;2023-02-15T05:05:16;96899.53;;;0.14;68.18
72395;BME280;60384;48.152;11.614;2023-02-15T05:08:18;96909.59;;;0.17;68.74
72395;BME280;60384;48.152;11.614;2023-02-15T05:11:21;96914.84;;;0.17;68.66
72395;BME280;60384;48.152;11.614;2023-02-15T05:14:23;96916.91;;;0.15;68.64
72395;BME280;60384;48.152;11.614;2023-02-15T05:17:25;96911.88;;;0.14;68.21
72395;BME280;60384;48.152;11.614;2023-02-15T05:20:27;96910.84;;;0.15;68.10
72395;BME280;60384;48.152;11.614;2023-02-15T05:23:28;96909.84;;;0.16;68.74
72395;BME280;60384;48.152;11.614;2023-02-15T05:26:32;96908.03;;;0.16;68.21
72395;BME280;60384;48.152;11.614;2023-02-15T05:29:51;96901.50;;;0.19;68.61
72395;BME280;60384;48.152;11.614;2023-02-15T05:32:53;96906.75;;;0.19;68.73
72395;BME280;60384;48.152;11.614;2023-02-15T05:35:54;96911.22;;;0.18;68.46
72395;BME280;60384;48.152;11.614;2023-02-15T05:38:56;96922.72;;;0.17;68.30
72395;BME280;60384;48.152;11.614;2023-02-15T05:42:00;96922.16;;;0.15;68.23
72395;BME280;60384;48.152;11.614;2023-02-15T05:45:02;96925.38;;;0.17;68.94
72395;BME280;60384;48.152;11.614;2023-02-15T05:48:04;96924.13;;;0.20;68.76
72395;BME280;60384;48.152;11.614;2023-02-15T05:51:07;96923.72;;;0.23;68.80
72395;BME280;60384;48.152;11.614;2023-02-15T05:54:10;96920.63;;;0.26;68.69
72395;BME280;60384;48.152;11.614;2023-02-15T05:57:13;96915.38;;;0.26;68.51
72395;BME280;60384;48.152;11.614;2023-02-15T06:00:15;96914.16;;;0.28;68.33
72395;BME280;60384;48.152;11.614;2023-02-15T06:03:17;96913.09;;;0.29;68.75
72395;BME280;60384;48.152;11.614;2023-02-15T06:06:19;96917.34;;;0.30;68.41
72395;BME280;60384;48.152;11.614;2023-02-15T06:09:21;96921.78;;;0.30;68.58
72395;BME280;60384;48.152;11.614;2023-02-15T06:12:24;96924.66;;;0.28;68.30
72395;BME280;60384;48.152;11.614;2023-02-15T06:15:26;96925.88;;;0.26;69.04
72395;BME280;60384;48.152;11.614;2023-02-15T06:18:28;96927.69;;;0.25;68.56
72395;BME280;60384;48.152;11.614;2023-02-15T06:21:30;96924.28;;;0.25;68.52
72395;BME280;60384;48.152;11.614;2023-02-15T06:24:32;96929.53;;;0.25;68.44
72395;BME280;60384;48.152;11.614;2023-02-15T06:27:35;96929.53;;;0.25;68.56
72395;BME280;60384;48.152;11.614;2023-02-15T06:30:37;96936.41;;;0.26;68.66
72395;BME280;60384;48.152;11.614;2023-02-15T06:33:39;96932.97;;;0.25;68.89
72395;BME280;60384;48.152;11.614;2023-02-15T06:36:41;96942.66;;;0.25;68.54
72395;BME280;60384;48.152;11.614;2023-02-15T06:39:42;96938.44;;;0.24;69.05
72395;BME280;60384;48.152;11.614;2023-02-15T06:42:46;96944.13;;;0.21;69.36
72395;BME280;60384;48.152;11.614;2023-02-15T06:45:48;96934.84;;;0.18;68.13
72395;BME280;60384;48.152;11.614;2023-02-15T06:48:49;96940.34;;;0.17;68.78
72395;BME280;60384;48.152;11.614;2023-02-15T06:51:51;96944.56;;;0.18;69.05
72395;BME280;60384;48.152;11.614;2023-02-15T06:54:53;96945.34;;;0.18;68.22
72395;BME280;60384;48.152;11.614;2023-02-15T06:57:56;96947.78;;;0.20;68.34
72395;BME280;60384;48.152;11.614;2023-02-15T07:00:58;96940.69;;;0.20;68.28
72395;BME280;60384;48.152;11.614;2023-02-15T07:04:00;96941.50;;;0.21;68.51
72395;BME280;60384;48.152;11.614;2023-02-15T07:07:02;96937.06;;;0.21;68.78
72395;BME280;60384;48.152;11.614;2023-02-15T07:10:05;96947.34;;;0.23;68.05
72395;BME280;60384;48.152;11.614;2023-02-15T07:13:08;96950.75;;;0.23;68.30
72395;BME280;60384;48.152;11.614;2023-02-15T07:16:10;96953.75;;;0.27;68.47
72395;BME280;60384;48.152;11.614;2023-02-15T07:19:12;96950.47;;;0.31;68.04
72395;BME280;60384;48.152;11.614;2023-02-15T07:22:14;96951.88;;;0.34;67.79
72395;BME280;60384;48.152;11.614;2023-02-15T07:25:16;96940.69;;;0.38;68.14
72395;BME280;60384;48.152;11.614;2023-02-15T07:28:20;96947.31;;;0.41;68.57
72395;BME280;60384;48.152;11.614;2023-02-15T07:31:22;96947.25;;;0.48;67.66
72395;BME280;60384;48.152;11.614;2023-02-15T07:34:24;96942.13;;;0.53;67.69
72395;BME280;60384;48.152;11.614;2023-02-15T07:37:26;96941.69;;;0.56;67.88
72395;BME280;60384;48.152;11.614;2023-02-15T07:40:28;96939.41;;;0.59;67.79
72395;BME280;60384;48.152;11.614;2023-02-15T07:43:32;96933.13;;;0.60;68.37
72395;BME280;60384;48.152;11.614;2023-02-15T07:46:34;96941.63;;;0.62;67.77
72395;BME280;60384;48.152;11.614;2023-02-15T07:49:36;96936.91;;;0.64;68.36
72395;BME280;60384;48.152;11.614;2023-02-15T07:52:38;96936.91;;;0.64;67.94
72395;BME280;60384;48.152;11.614;2023-02-15T07:55:40;96940.56;;;0.63;68.21
72395;BME280;60384;48.152;11.614;2023-02-15T07:58:43;96930.06;;;0.63;68.16
72395;BME280;60384;48.152;11.614;2023-02-15T08:01:56;96934.06;;;0.66;67.58
72395;BME280;60384;48.152;11.614;2023-02-15T08:04:58;96933.06;;;0.67;68.19
72395;BME280;60384;48.152;11.614;2023-02-15T08:07:59;96921.06;;;0.71;67.90
72395;BME280;60384;48.152;11.614;2023-02-15T08:11:02;96925.66;;;0.75;68.19
72395;BME280;60384;48.152;11.614;2023-02-15T08:14:24;96925.09;;;0.73;68.34
72395;BME280;60384;48.152;11.614;2023-02-15T08:17:26;96921.53;;;0.68;67.72
72395;BME280;60384;48.152;11.614;2023-02-15T08:20:27;96921.94;;;0.65;68.22
72395;BME280;60384;48.152;11.614;2023-02-15T08:23:29;96919.53;;;0.63;67.62
72395;BME280;60384;48.152;11.614;2023-02-15T08:26:31;96921.38;;;0.63;68.10
72395;BME280;60384;48.152;11.614;2023-02-15T08:29:35;96919.53;;;0.63;67.95
72395;BME280;60384;48.152;11.614;2023-02-15T08:32:38;96923.34;;;0.67;67.98
72395;BME280;60384;48.152;11.614;2023-02-15T08:35:40;96923.91;;;0.69;67.75
72395;BME280;60384;48.152;11.614;2023-02-15T08:38:42;96925.66;;;0.75;68.37
72395;BME280;60384;48.152;11.614;2023-02-15T08:41:46;96926.38;;;0.82;68.13
72395;BME280;60384;48.152;11.614;2023-02-15T08:44:49;96926.28;;;0.89;67.66
72395;BME280;60384;48.152;11.614;2023-02-15T08:47:52;96920.34;;;0.94;67.35
72395;BME280;60384;48.152;11.614;2023-02-15T08:50:54;96917.41;;;1.02;67.65
72395;BME280;60384;48.152;11.614;2023-02-15T08:53:58;96921.75;;;1.08;67.90
72395;BME280;60384;48.152;11.614;2023-02-15T08:57:00;96912.16;;;1.13;67.28
72395;BME280;60384;48.152;11.614;2023-02-15T09:00:04;96917.69;;;1.23;67.40
72395;BME280;60384;48.152;11.614;2023-02-15T09:03:06;96919.16;;;1.31;67.67
72395;BME280;60384;48.152;11.614;2023-02-15T09:06:08;96914.38;;;1.40;67.52
72395;BME280;60384;48.152;11.614;2023-02-15T09:09:11;96915.63;;;1.49;67.47
72395;BME280;60384;48.152;11.614;2023-02-15T09:12:13;96912.66;;;1.57;67.28
72395;BME280;60384;48.152;11.614;2023-02-15T09:15:16;96913.38;;;1.64;67.18
72395;BME280;60384;48.152;11.614;2023-02-15T09:18:18;96915.63;;;1.72;67.33
72395;BME280;60384;48.152;11.614;2023-02-15T09:21:22;96915.88;;;1.82;67.19
72395;BME280;60384;48.152;11.614;2023-02-15T09:24:24;96910.03;;;1.92;66.87
72395;BME280;60384;48.152;11.614;2023-02-15T09:27:26;96912.84;;;2.14;66.62
72395;BME280;60384;48.152;11.614;2023-02-15T09:30:29;96916.69;;;2.34;66.33
72395;BME280;60384;48.152;11.614;2023-02-15T09:33:33;96906.56;;;2.55;66.11
72395;BME280;60384;48.152;11.614;2023-02-15T09:36:36;96894.75;;;3.02;65.51
72395;BME280;60384;48.152;11.614;2023-02-15T09:39:41;96898.84;;;4.85;61.27
72395;BME280;60384;48.152;11.614;2023-02-15T09:42:56;96888.50;;;7.04;55.68
72395;BME280;60384;48.152;11.614;2023-02-15T09:46:25;96891.97;;;7.04;57.42
72395;BME280;60384;48.152;11.614;2023-02-15T09:49:37;96903.03;;;6.71;58.93
72395;BME280;60384;48.152;11.614;2023-02-15T09:52:55;96903.19;;;6.49;60.33
72395;BME280;60384;48.152;11.614;2023-02-15T09:56:04;96902.91;;;6.36;61.25
72395;BME280;60384;48.152;11.614;2023-02-15T09:59:14;96902.28;;;6.18;62.04
72395;BME280;60384;48.152;11.614;2023-02-15T10:02:35;96903.00;;;6.04;63.10
72395;BME280;60384;48.152;11.614;2023-02-15T10:05:47;96899.94;;;5.85;63.87
72395;BME280;60384;48.152;11.614;2023-02-15T10:09:07;96894.28;;;5.71;64.07
72395;BME280;60384;48.152;11.614;2023-02-15T10:12:29;96899.75;;;5.60;64.43
72395;BME280;60384;48.152;11.614;2023-02-15T10:15:48;96898.59;;;5.46;64.71
72395;BME280;60384;48.152;11.614;2023-02-15T10:18:59;96892.53;;;5.50;65.02
72395;BME280;60384;48.152;11.614;2023-02-15T10:22:13;96893.19;;;5.67;64.70
72395;BME280;60384;48.152;11.614;2023-02-15T10:25:26;96882.78;;;5.93;63.90
72395;BME280;60384;48.152;11.614;2023-02-15T10:28:31;96885.03;;;6.16;63.56
72395;BME280;60384;48.152;11.614;2023-02-15T10:31:46;96880.84;;;6.30;63.29
72395;BME280;60384;48.152;11.614;2023-02-15T10:34:54;96881.81;;;6.71;62.86
72395;BME280;60384;48.152;11.614;2023-02-15T10:38:08;96876.03;;;7.04;61.36
72395;BME280;60384;48.152;11.614;2023-02-15T10:41:25;96871.78;;;7.24;61.52
72395;BME280;60384;48.152;11.614;2023-02-15T10:44:42;96869.91;;;7.55;61.36
72395;BME280;60384;48.152;11.614;2023-02-15T10:47:58;96866.16;;;8.70;59.12
72395;BME280;60384;48.152;11.614;2023-02-15T10:51:11;96859.44;;;9.85;55.92
72395;BME280;60384;48.152;11.614;2023-02-15T10:54:24;96842.13;;;11.61;52.31
72395;BME280;60384;48.152;11.614;2023-02-15T10:57:36;96848.94;;;12.13;51.34
72395;BME280;60384;48.152;11.614;2023-02-15T11:00:44;96843.69;;;13.12;49.61
72395;BME280;60384;48.152;11.614;2023-02-15T11:04:05;96826.97;;;14.70;46.79
72395;BME280;60384;48.152;11.614;2023-02-15T11:07:16;96827.63;;;15.44;46.37
72395;BME280;60384;48.152;11.614;2023-02-15T11:10:28;96821.16;;;15.54;46.84
72395;BME280;60384;48.152;11.614;2023-02-15T11:13:34;96815.63;;;15.24;48.29
72395;BME280;60384;48.152;11.614;2023-02-15T11:16:40;96814.00;;;15.58;48.97
72395;BME280;60384;48.152;11.614;2023-02-15T11:19:51;96802.22;;;16.26;48.85
72395;BME280;60384;48.152;11.614;2023-02-15T11:22:58;96808.13;;;16.78;49.19
72395;BME280;60384;48.152;11.614;2023-02-15T11:26:04;96799.50;;;17.26;49.08
72395;BME280;60384;48.152;11.614;2023-02-15T11:29:12;96794.50;;;17.70;49.04
72395;BME280;60384;48.152;11.614;2023-02-15T11:32:20;96786.84;;;17.84;49.45
72395;BME280;60384;48.152;11.614;2023-02-15T11:35:26;96786.22;;;18.24;49.96
72395;BME280;60384;48.152;11.614;2023-02-15T11:38:32;96776.13;;;18.97;49.23
72395;BME280;60384;48.152;11.614;2023-02-15T11:41:38;96774.34;;;19.72;47.97
72395;BME280;60384;48.152;11.614;2023-02-15T11:44:56;96769.31;;;20.49;47.29
72395;BME280;60384;48.152;11.614;2023-02-15T11:48:00;96759.19;;;21.00;46.65
72395;BME280;60384;48.152;11.614;2023-02-15T11:51:14;96755.59;;;20.96;46.99
72395;BME280;60384;48.152;11.614;2023-02-15T11:54:23;96755.75;;;20.69;47.60
72395;BME280;60384;48.152;11.614;2023-02-15T11:57:33;96752.47;;;20.28;48.78
72395;BME280;60384;48.152;11.614;2023-02-15T12:00:40;96752.41;;;20.25;49.43
72395;BME280;60384;48.152;11.614;2023-02-15T12:03:46;96741.88;;;20.54;49.27
72395;BME280;60384;48.152;11.614;2023-02-15T12:06:52;96746.59;;;20.57;49.73
72395;BME280;60384;48.152;11.614;2023-02-15T12:10:02;96747.22;;;20.51;49.97
72395;BME280;60384;48.152;11.614;2023-02-15T12:13:10;96736.34;;;20.32;50.24
72395;BME280;60384;48.152;11.614;2023-02-15T12:16:12;96730.38;;;19.95;51.25
72395;BME280;60384;48.152;11.614;2023-02-15T12:19:28;96726.88;;;19.63;52.04
72395;BME280;60384;48.152;11.614;2023-02-15T12:22:33;96728.78;;;19.47;52.70
72395;BME280;60384;48.152;11.614;2023-02-15T12:25:41;96726.34;;;19.29;53.36
72395;BME280;60384;48.152;11.614;2023-02-15T12:28:44;96721.94;;;18.97;54.49
72395;BME280;60384;48.152;11.614;2023-02-15T12:31:52;96722.16;;;18.52;55.67
72395;BME280;60384;48.152;11.614;2023-02-15T12:34:59;96712.28;;;18.07;56.92
72395;BME280;60384;48.152;11.614;2023-02-15T12:38:19;96711.31;;;17.55;58.13
72395;BME280;60384;48.152;11.614;2023-02-15T12:41:25;96718.97;;;17.08;59.10
72395;BME280;60384;48.152;11.614;2023-02-15T12:44:29;96711.38;;;16.68;59.78
72395;BME280;60384;48.152;11.614;2023-02-15T12:47:31;96708.56;;;16.35;60.11
72395;BME280;60384;48.152;11.614;2023-02-15T12:50:33;96707.84;;;15.97;60.81
72395;BME280;60384;48.152;11.614;2023-02-15T12:53:36;96706.38;;;15.70;61.48
72395;BME280;60384;48.152;11.614;2023-02-15T12:56:40;96707.84;;;15.50;61.63
72395;BME280;60384;48.152;11.614;2023-02-15T12:59:49;96702.22;;;15.26;61.89
72395;BME280;60384;48.152;11.614;2023-02-15T13:02:53;96705.28;;;14.99;62.07
72395;BME280;60384;48.152;11.614;2023-02-15T13:05:57;96692.19;;;14.80;62.11
72395;BME280;60384;48.152;11.614;2023-02-15T13:09:06;96690.75;;;14.65;62.82
72395;BME280;60384;48.152;11.614;2023-02-15T13:12:20;96685.38;;;14.48;62.67
72395;BME280;60384;48.152;11.614;2023-02-15T13:15:26;96686.75;;;14.28;62.97
72395;BME280;60384;48.152;11.614;2023-02-15T13:18:31;96685.63;;;14.12;63.63
72395;BME280;60384;48.152;11.614;2023-02-15T13:21:37;96683.38;;;13.97;63.42
72395;BME280;60384;48.152;11.614;2023-02-15T13:24:43;96677.34;;;13.83;63.55
72395;BME280;60384;48.152;11.614;2023-02-15T13:27:52;96673.00;;;13.64;63.48
72395;BME280;60384;48.152;11.614;2023-02-15T13:30:54;96665.06;;;13.51;63.88
72395;BME280;60384;48.152;11.614;2023-02-15T13:34:02;96668.97;;;13.45;63.90
72395;BME280;60384;48.152;11.614;2023-02-15T13:37:10;96665.97;;;13.38;63.97
72395;BME280;60384;48.152;11.614;2023-02-15T13:40:22;96665.63;;;13.31;64.15
72395;BME280;60384;48.152;11.614;2023-02-15T13:43:37;96670.63;;;13.23;64.65
72395;BME280;60384;48.152;11.614;2023-02-15T13:46:55;96677.22;;;13.17;64.82
72395;BME280;60384;48.152;11.614;2023-02-15T13:50:16;96669.41;;;13.07;65.02
72395;BME280;60384;48.152;11.614;2023-02-15T13:53:43;96668.88;;;12.97;65.26
72395;BME280;60384;48.152;11.614;2023-02-15T13:56:56;96669.44;;;12.85;65.62
72395;BME280;60384;48.152;11.614;2023-02-15T14:00:13;96668.09;;;12.74;65.55
72395;BME280;60384;48.152;11.614;2023-02-15T14:03:39;96679.09;;;12.64;65.87
72395;BME280;60384;48.152;11.614;2023-02-15T14:10:25;96677.16;;;12.42;66.35
72395;BME280;60384;48.152;11.614;2023-02-15T14:13:50;96670.16;;;12.32;66.20
72395;BME280;60384;48.152;11.614;2023-02-15T14:17:03;96673.97;;;12.18;66.25
72395;BME280;60384;48.152;11.614;2023-02-15T14:20:17;96666.44;;;12.06;66.57
72395;BME280;60384;48.152;11.614;2023-02-15T14:23:32;96670.72;;;11.93;66.80
72395;BME280;60384;48.152;11.614;2023-02-15T14:26:45;96666.56;;;11.87;66.52
72395;BME280;60384;48.152;11.614;2023-02-15T14:29:51;96668.84;;;11.80;66.59
72395;BME280;60384;48.152;11.614;2023-02-15T14:33:00;96662.22;;;11.78;66.20
72395;BME280;60384;48.152;11.614;2023-02-15T14:36:07;96657.16;;;11.76;66.64
72395;BME280;60384;48.152;11.614;2023-02-15T14:39:21;96656.97;;;11.73;66.86
72395;BME280;60384;48.152;11.614;2023-02-15T14:42:47;96651.59;;;11.73;66.98
72395;BME280;60384;48.152;11.614;2023-02-15T14:45:55;96654.28;;;11.73;66.55
72395;BME280;60384;48.152;11.614;2023-02-15T14:49:05;96644.16;;;11.70;66.75
72395;BME280;60384;48.152;11.614;2023-02-15T14:52:09;96650.41;;;11.65;66.50
72395;BME280;60384;48.152;11.614;2023-02-15T14:55:35;96648.53;;;11.52;66.04
72395;BME280;60384;48.152;11.614;2023-02-15T14:58:37;96648.94;;;11.32;66.23
72395;BME280;60384;48.152;11.614;2023-02-15T15:01:40;96652.38;;;11.05;66.39
72395;BME280;60384;48.152;11.614;2023-02-15T15:04:55;96661.38;;;10.76;66.97
72395;BME280;60384;48.152;11.614;2023-02-15T15:07:59;96656.75;;;10.50;66.32
72395;BME280;60384;48.152;11.614;2023-02-15T15:11:38;96656.75;;;10.31;66.97
72395;BME280;60384;48.152;11.614;2023-02-15T15:14:42;96654.38;;;10.11;66.89
72395;BME280;60384;48.152;11.614;2023-02-15T15:17:58;96643.69;;;9.92;67.44
72395;BME280;60384;48.152;11.614;2023-02-15T15:21:02;96650.81;;;9.78;67.04
72395;BME280;60384;48.152;11.614;2023-02-15T15:24:05;96650.16;;;9.67;67.42
72395;BME280;60384;48.152;11.614;2023-02-15T15:27:47;96650.41;;;9.47;67.32
72395;BME280;60384;48.152;11.614;2023-02-15T15:30:51;96655.91;;;9.32;67.26
72395;BME280;60384;48.152;11.614;2023-02-15T15:38:24;96654.59;;;9.05;67.37
72395;BME280;60384;48.152;11.614;2023-02-15T15:41:39;96662.66;;;8.95;67.48
72395;BME280;60384;48.152;11.614;2023-02-15T15:45:03;96670.81;;;8.80;67.65
72395;BME280;60384;48.152;11.614;2023-02-15T15:48:37;96667.19;;;8.66;67.19
72395;BME280;60384;48.152;11.614;2023-02-15T15:51:41;96674.44;;;8.60;67.60
72395;BME280;60384;48.152;11.614;2023-02-15T15:54:46;96667.31;;;8.51;67.39
72395;BME280;60384;48.152;11.614;2023-02-15T15:57:51;96677.50;;;8.44;67.15
72395;BME280;60384;48.152;11.614;2023-02-15T16:00:56;96685.00;;;8.37;66.66
72395;BME280;60384;48.152;11.614;2023-02-15T16:04:00;96679.72;;;8.26;67.80
72395;BME280;60384;48.152;11.614;2023-02-15T16:07:14;96688.56;;;8.17;67.52
72395;BME280;60384;48.152;11.614;2023-02-15T16:10:24;96686.75;;;8.07;67.40
72395;BME280;60384;48.152;11.614;2023-02-15T16:13:26;96682.28;;;7.98;67.23
72395;BME280;60384;48.152;11.614;2023-02-15T16:16:29;96676.22;;;7.87;67.88
72395;BME280;60384;48.152;11.614;2023-02-15T16:19:33;96680.00;;;7.76;67.40
72395;BME280;60384;48.152;11.614;2023-02-15T16:22:38;96681.13;;;7.60;67.56
72395;BME280;60384;48.152;11.614;2023-02-15T16:25:47;96693.16;;;7.42;67.04
72395;BME280;60384;48.152;11.614;2023-02-15T16:28:54;96695.88;;;7.22;68.10
72395;BME280;60384;48.152;11.614;2023-02-15T16:31:58;96691.66;;;7.05;67.56
72395;BME280;60384;48.152;11.614;2023-02-15T16:35:02;96695.66;;;6.88;68.07